createdAt,value
2018-10-12T00:09:35.891Z,15.1
2018-10-12T00:19:35.123Z,15.1
2018-10-12T00:29:34.342Z,15.2
2018-10-12T00:39:33.567Z,15.3
2018-10-12T00:49:32.843Z,15.3
2018-10-12T00:59:32.006Z,15.3
2018-10-12T01:09:31.237Z,15.3
2018-10-12T01:19:30.452Z,15.3
2018-10-12T01:29:29.684Z,15.2
2018-10-12T01:39:28.903Z,15.1
2018-10-12T01:49:28.173Z,15.1
2018-10-12T01:59:27.342Z,15.1
2018-10-12T02:09:26.574Z,15
2018-10-12T02:19:25.787Z,14.9
2018-10-12T02:29:25.009Z,14.8
2018-10-12T02:39:24.234Z,14.8
2018-10-12T02:49:23.466Z,14.6
2018-10-12T02:59:22.688Z,14.6
2018-10-12T03:09:21.900Z,14.5
2018-10-12T03:19:21.122Z,14.4
2018-10-12T03:29:20.351Z,14.4
2018-10-12T03:39:19.580Z,14.4
2018-10-12T03:49:18.798Z,14.4
2018-10-12T03:59:18.018Z,14.4
2018-10-12T04:09:17.248Z,14.4
2018-10-12T04:19:16.473Z,13.4
2018-10-12T04:29:15.701Z,12.9
2018-10-12T04:39:14.923Z,12.9
2018-10-12T04:49:14.171Z,12.9
2018-10-12T04:59:13.367Z,13
2018-10-12T05:09:12.602Z,13.2
2018-10-12T05:19:11.814Z,13.6
2018-10-12T05:29:11.038Z,14.3
2018-10-12T05:39:10.265Z,15
2018-10-12T05:49:09.492Z,15.1
2018-10-12T05:59:08.709Z,15.9
2018-10-12T06:09:07.939Z,17.1
2018-10-12T06:19:07.160Z,17.9
2018-10-12T06:29:06.374Z,19.6
2018-10-12T06:39:05.602Z,21.3
2018-10-12T06:49:04.829Z,23.4
2018-10-12T06:59:04.049Z,25.5
2018-10-12T07:09:03.270Z,27.1
2018-10-12T07:19:02.487Z,25.6
2018-10-12T07:29:01.709Z,25.5
2018-10-12T07:39:00.933Z,26.2
2018-10-12T07:49:00.161Z,25.8
2018-10-12T07:58:59.388Z,25.3
2018-10-12T08:08:58.598Z,24.3
2018-10-12T08:18:57.826Z,24.8
2018-10-12T08:28:57.050Z,23.8
2018-10-12T15:14:33.196Z,17.5
2018-10-12T15:24:32.422Z,17.4
2018-10-12T15:34:31.649Z,17.3
2018-10-12T15:44:30.863Z,17.1
2018-10-12T15:54:30.087Z,16.9
2018-10-12T16:04:29.312Z,17.1
2018-10-12T16:14:28.573Z,17.2
2018-10-12T16:24:27.865Z,17.2
2018-10-12T16:34:27.160Z,17.2
2018-10-12T16:44:26.511Z,17.1
2018-10-12T16:54:25.760Z,17.1
2018-10-12T17:04:25.194Z,17.1
2018-10-12T17:14:24.284Z,16.9
2018-10-12T17:24:23.521Z,17.1
2018-10-12T17:34:22.737Z,17.2
2018-10-12T17:44:21.962Z,17.1
2018-10-12T17:54:21.188Z,17.1
2018-10-12T18:04:20.413Z,17.1
2018-10-12T18:14:19.705Z,17.2
2018-10-12T18:24:18.864Z,17.1
2018-10-12T18:34:18.091Z,17.1
2018-10-12T18:44:17.318Z,17.1
2018-10-12T18:54:16.611Z,16.9
2018-10-12T19:04:15.764Z,17.1
2018-10-12T19:14:14.985Z,17.1
2018-10-12T19:24:14.294Z,16.9
2018-10-12T19:34:13.436Z,16.8
2018-10-12T19:44:12.660Z,16.6
2018-10-12T19:54:11.883Z,16.5
2018-10-12T20:04:11.111Z,16.4
2018-10-12T20:14:10.339Z,16.3
2018-10-12T20:24:09.708Z,16.3
2018-10-12T20:34:08.787Z,16.2
2018-10-12T20:44:08.008Z,16.2
2018-10-12T20:54:07.236Z,16.2
2018-10-12T21:04:06.543Z,16.3
2018-10-12T21:14:05.687Z,16.3
2018-10-12T21:24:04.901Z,16.4
2018-10-12T21:34:04.125Z,16.4
2018-10-12T21:44:03.350Z,16.4
2018-10-12T21:54:02.572Z,16.4
2018-10-12T22:04:01.794Z,16.5
2018-10-12T22:14:01.099Z,16.5
2018-10-12T22:24:00.239Z,16.4
2018-10-12T22:33:59.473Z,16.4
2018-10-12T22:43:58.686Z,16.4
2018-10-12T22:53:57.910Z,16.3
2018-10-12T23:03:57.135Z,16.3
2018-10-12T23:13:56.350Z,16.2
2018-10-12T23:23:55.578Z,16.2
2018-10-12T23:33:54.800Z,16.1
2018-10-12T23:43:54.027Z,16.1
2018-10-12T23:53:53.240Z,16.1
